Time;durP1;ratioP1;P1;durP2;ratioP2;P2;SDS_P1;SDS_P2;PMS_P1;PMS_P2;Temp;Humidity;BMP_temperature;BMP_pressure;BME280_temperature;BME280_humidity;BME280_pressure;Samples;Min_cycle;Max_cycle;Signal;HPM_P1;HPM_P2
2023/10/08 00:01:18;;;;;;;3.50;0.60;;;;;;;12.91;100.00;102300.94;5079785;28;20066;-75
2023/10/08 00:03:48;;;;;;;2.90;0.60;;;;;;;12.92;100.00;102290.38;5048167;28;20048;-75
2023/10/08 00:06:20;;;;;;;0.98;0.50;;;;;;;12.92;100.00;102297.44;5031513;28;20051;-75
2023/10/08 00:08:48;;;;;;;2.53;0.90;;;;;;;12.95;100.00;102308.06;5069098;28;20055;-75
2023/10/08 00:11:15;;;;;;;2.13;0.60;;;;;;;12.97;100.00;102307.22;5062035;28;20049;-75
2023/10/08 00:13:43;;;;;;;3.83;0.90;;;;;;;13.00;100.00;102319.63;5067300;28;20053;-76
2023/10/08 00:16:21;;;;;;;2.33;0.68;;;;;;;13.03;100.00;102320.56;5057223;28;20041;-75
2023/10/08 00:18:50;;;;;;;1.48;0.93;;;;;;;13.05;100.00;102313.53;5041606;28;20055;-75
2023/10/08 00:21:25;;;;;;;2.85;0.80;;;;;;;13.07;100.00;102324.16;5054149;28;20040;-75
2023/10/08 00:23:59;;;;;;;4.82;0.95;;;;;;;13.05;100.00;102321.47;5021955;28;20049;-76
2023/10/08 00:26:31;;;;;;;3.85;1.10;;;;;;;13.01;100.00;102324.94;5055066;28;20057;-75
2023/10/08 00:29:01;;;;;;;3.10;1.00;;;;;;;12.96;100.00;102339.84;5067177;28;20048;-75
2023/10/08 00:31:32;;;;;;;4.88;0.90;;;;;;;12.93;100.00;102344.19;5056370;28;20053;-75
2023/10/08 00:33:59;;;;;;;4.28;1.08;;;;;;;12.79;100.00;102344.81;5021616;28;20514;-75
2023/10/08 00:36:26;;;;;;;3.40;0.80;;;;;;;12.77;100.00;102329.81;5069389;28;20041;-76
2023/10/08 00:38:58;;;;;;;5.72;0.80;;;;;;;12.74;100.00;102327.09;5036573;28;20513;-75
2023/10/08 00:41:31;;;;;;;3.95;1.15;;;;;;;12.75;100.00;102324.47;5020869;28;20513;-75
2023/10/08 00:44:00;;;;;;;3.45;0.70;;;;;;;12.75;100.00;102324.47;5048375;28;20048;-75
2023/10/08 00:46:42;;;;;;;5.05;0.98;;;;;;;12.74;100.00;102321.81;5020520;28;20052;-75
2023/10/08 00:57:35;;;;;;;2.20;0.77;;;;;;;12.76;100.00;102325.38;5051402;28;20489;-75
2023/10/08 01:00:06;;;;;;;3.95;0.65;;;;;;;12.78;100.00;102327.19;5066698;28;20425;-75
2023/10/08 01:03:18;;;;;;;3.53;1.10;;;;;;;12.81;100.00;102319.28;5050519;28;20076;-76
2023/10/08 01:05:37;;;;;;;6.70;1.20;;;;;;;12.81;100.00;102321.06;5004126;28;20048;-76
2023/10/08 01:08:06;;;;;;;4.82;1.20;;;;;;;12.77;100.00;102312.16;5057582;28;20044;-76
2023/10/08 01:10:35;;;;;;;4.63;0.85;;;;;;;12.70;100.00;102315.56;5036290;28;20510;-76
2023/10/08 01:13:12;;;;;;;4.53;1.00;;;;;;;12.66;100.00;102313.72;5062875;28;20209;-76
2023/10/08 01:15:41;;;;;;;3.00;0.88;;;;;;;12.64;100.00;102324.28;5068695;28;20053;-76
2023/10/08 01:18:14;;;;;;;3.80;0.95;;;;;;;12.64;100.00;102348.06;5037634;28;20041;-76
2023/10/08 01:23:16;;;;;;;4.40;1.42;;;;;;;12.67;100.00;102356.09;5044878;28;20048;-76
2023/10/08 01:28:30;;;;;;;6.07;1.33;;;;;;;12.73;100.00;102350.00;5065566;28;20490;-76
2023/10/08 01:31:00;;;;;;;9.63;1.60;;;;;;;12.70;100.00;102347.31;5042952;28;20045;-76
2023/10/08 01:33:28;;;;;;;2.95;1.20;;;;;;;12.72;100.00;102340.31;5051653;28;20516;-76
2023/10/08 01:36:03;;;;;;;5.90;1.10;;;;;;;12.74;100.00;102346.53;5063742;28;20052;-76
2023/10/08 01:38:35;;;;;;;9.73;1.40;;;;;;;12.74;100.00;102349.16;5007346;28;20064;-76
2023/10/08 01:41:03;;;;;;;4.68;1.20;;;;;;;12.76;100.00;102339.50;5048853;28;20043;-76
2023/10/08 01:43:31;;;;;;;6.65;1.40;;;;;;;12.80;100.00;102340.44;5051961;28;20056;-76
2023/10/08 01:45:58;;;;;;;4.65;1.40;;;;;;;12.80;100.00;102332.53;5068728;28;20526;-76
2023/10/08 01:48:36;;;;;;;5.65;1.30;;;;;;;12.81;100.00;102329.00;5039858;28;20056;-76
2023/10/08 01:51:11;;;;;;;6.15;1.40;;;;;;;12.82;100.00;102347.53;5046155;28;20371;-76
2023/10/08 01:53:39;;;;;;;6.90;1.67;;;;;;;12.83;100.00;102354.59;5012644;28;20044;-76
2023/10/08 01:56:06;;;;;;;7.35;1.42;;;;;;;12.86;100.00;102352.03;5047804;28;20044;-76
2023/10/08 01:58:34;;;;;;;8.55;1.27;;;;;;;12.89;100.00;102364.41;5046766;28;20049;-76
2023/10/08 02:01:01;;;;;;;8.93;1.52;;;;;;;12.91;100.00;102375.00;5029769;28;20048;-76
2023/10/08 02:03:28;;;;;;;3.67;1.00;;;;;;;12.94;100.00;102372.44;5030006;28;20059;-76
2023/10/08 02:05:59;;;;;;;8.45;1.17;;;;;;;12.95;100.00;102369.81;5026525;28;20048;-76
2023/10/08 02:08:27;;;;;;;6.68;1.33;;;;;;;12.96;100.00;102360.13;4992273;28;20055;-77
2023/10/08 02:10:54;;;;;;;4.97;1.13;;;;;;;12.96;100.00;102347.78;5051877;28;20553;-77
2023/10/08 02:13:22;;;;;;;5.28;0.90;;;;;;;12.98;100.00;102371.63;5045681;28;20430;-77
2023/10/08 02:15:53;;;;;;;9.35;1.98;;;;;;;12.99;100.00;102370.78;5061719;28;20498;-77
2023/10/08 02:18:23;;;;;;;7.97;1.20;;;;;;;13.00;100.00;102361.94;5049740;28;20441;-76
2023/10/08 02:20:51;;;;;;;9.85;1.67;;;;;;;12.99;100.00;102384.00;5048782;28;20055;-76
2023/10/08 02:23:19;;;;;;;8.68;1.50;;;;;;;12.97;100.00;102378.69;5055342;28;20049;-76
2023/10/08 02:25:47;;;;;;;6.28;1.70;;;;;;;12.96;100.00;102371.59;4998839;28;20057;-76
2023/10/08 02:28:15;;;;;;;9.25;1.40;;;;;;;12.96;100.00;102381.28;5051466;28;20041;-76
2023/10/08 02:30:43;;;;;;;7.88;1.80;;;;;;;12.94;100.00;102373.31;5046481;28;20110;-76
2023/10/08 02:33:17;;;;;;;6.90;1.60;;;;;;;12.95;100.00;102377.75;5044506;28;20055;-76
2023/10/08 02:35:46;;;;;;;7.35;1.45;;;;;;;12.96;100.00;102390.09;5052966;28;20051;-76
2023/10/08 02:38:16;;;;;;;8.80;1.55;;;;;;;12.97;100.00;102401.59;5047765;28;20049;-76
2023/10/08 02:40:47;;;;;;;5.90;1.48;;;;;;;12.96;100.00;102403.34;5007856;28;20053;-76
2023/10/08 02:43:16;;;;;;;8.80;1.77;;;;;;;12.97;100.00;102401.59;5055657;28;20067;-76
2023/10/08 02:45:47;;;;;;;10.88;2.00;;;;;;;12.96;100.00;102400.69;5037106;28;20397;-76
2023/10/08 02:48:15;;;;;;;10.43;1.65;;;;;;;12.97;100.00;102414.84;5053077;28;20045;-76
2023/10/08 02:50:47;;;;;;;5.70;1.20;;;;;;;12.99;100.00;102405.16;5062271;28;20051;-76
2023/10/08 02:53:25;;;;;;;7.47;1.40;;;;;;;12.98;100.00;102408.66;5059326;28;20040;-76
2023/10/08 02:55:53;;;;;;;4.20;1.15;;;;;;;12.99;100.00;102410.47;4980131;28;20045;-75
2023/10/08 02:58:21;;;;;;;9.07;1.17;;;;;;;12.98;100.00;102406.91;5065605;28;20067;-76
2023/10/08 03:00:49;;;;;;;5.72;1.50;;;;;;;12.96;100.00;102408.63;5066115;28;20040;-74
2023/10/08 03:03:24;;;;;;;4.43;1.50;;;;;;;12.95;100.00;102416.53;5042149;28;20056;-75
2023/10/08 03:05:56;;;;;;;6.32;1.52;;;;;;;12.94;100.00;102423.59;5054404;28;20531;-75
2023/10/08 03:08:24;;;;;;;6.60;1.73;;;;;;;12.94;100.00;102418.28;5060862;28;20065;-75
2023/10/08 03:10:55;;;;;;;5.80;1.38;;;;;;;12.94;100.00;102430.66;5018316;28;20053;-75
2023/10/08 03:13:26;;;;;;;8.15;1.52;;;;;;;12.92;100.00;102442.97;5035195;28;20066;-75
2023/10/08 03:18:36;;;;;;;6.38;1.48;;;;;;;12.91;100.00;102434.13;5069646;28;20041;-75
2023/10/08 03:21:19;;;;;;;5.78;1.40;;;;;;;12.92;100.00;102427.09;5060610;28;20044;-75
2023/10/08 03:23:51;;;;;;;5.20;2.03;;;;;;;12.93;100.00;102424.47;5053302;28;20048;-75
2023/10/08 03:29:04;;;;;;;6.03;1.40;;;;;;;12.94;100.00;102451.81;5026476;28;20049;-75
2023/10/08 03:31:44;;;;;;;7.43;1.23;;;;;;;12.95;100.00;102448.28;5066645;28;20053;-75
2023/10/08 03:34:18;;;;;;;8.37;1.37;;;;;;;12.95;100.00;102440.34;5063453;28;20052;-75
2023/10/08 03:36:49;;;;;;;6.30;1.38;;;;;;;12.96;100.00;102436.84;5048507;28;20740;-75
2023/10/08 03:39:18;;;;;;;10.05;1.95;;;;;;;12.97;100.00;102441.31;5061959;28;20057;-75
2023/10/08 03:42:05;;;;;;;7.03;1.63;;;;;;;12.98;100.00;102445.72;5007527;28;20048;-75
2023/10/08 03:44:36;;;;;;;7.50;1.80;;;;;;;12.97;100.00;102447.47;5059236;28;20045;-75
2023/10/08 03:47:10;;;;;;;12.55;1.80;;;;;;;12.98;100.00;102456.28;5053694;28;20056;-75
2023/10/08 03:49:45;;;;;;;9.90;1.73;;;;;;;12.97;100.00;102462.47;5048424;28;20059;-75
2023/10/08 03:52:13;;;;;;;9.63;1.30;;;;;;;12.99;100.00;102479.25;5059905;28;20047;-75
2023/10/08 03:54:48;;;;;;;5.50;1.60;;;;;;;12.97;100.00;102487.16;5057537;28;20041;-75
2023/10/08 03:57:25;;;;;;;5.80;1.58;;;;;;;12.98;100.00;102486.28;5001176;28;20048;-75
2023/10/08 03:59:58;;;;;;;9.43;1.65;;;;;;;12.96;100.00;102482.72;5040941;28;20044;-75
2023/10/08 04:02:46;;;;;;;5.10;1.25;;;;;;;12.96;100.00;102479.19;5039307;28;20056;-75
2023/10/08 04:05:21;;;;;;;9.10;1.48;;;;;;;12.94;100.00;102487.09;5047817;28;20515;-75
2023/10/08 04:08:16;;;;;;;8.07;2.15;;;;;;;12.93;100.00;102489.69;5061202;28;20569;-75
2023/10/08 04:13:08;;;;;;;5.35;1.58;;;;;;;12.90;100.00;102494.94;5034237;28;20048;-76
2023/10/08 04:15:40;;;;;;;4.82;1.70;;;;;;;12.91;100.00;102517.88;5036257;28;20045;-76
2023/10/08 04:18:09;;;;;;;3.70;1.25;;;;;;;12.91;100.00;102523.19;5066238;28;20049;-76
2023/10/08 04:23:18;;;;;;;5.60;1.55;;;;;;;12.91;100.00;102554.94;5064776;28;20478;-76
2023/10/08 04:25:46;;;;;;;12.32;2.13;;;;;;;12.89;100.00;102565.47;5049456;28;20033;-76
2023/10/08 04:28:17;;;;;;;5.90;1.70;;;;;;;12.84;100.00;102536.28;5021402;28;20048;-76
2023/10/08 04:30:45;;;;;;;2.63;1.25;;;;;;;12.80;100.00;102555.63;5039313;28;20040;-75
2023/10/08 04:33:12;;;;;;;6.05;1.83;;;;;;;12.76;100.00;102529.97;5054611;28;20056;-76
2023/10/08 04:36:01;;;;;;;11.77;1.88;;;;;;;12.76;100.00;102535.25;5065628;28;20055;-76
2023/10/08 04:38:29;;;;;;;9.00;2.15;;;;;;;12.75;100.00;102527.28;5063953;28;20049;-76
2023/10/08 04:41:03;;;;;;;3.92;1.45;;;;;;;12.71;100.00;102523.66;5055512;28;20056;-76
2023/10/08 04:43:30;;;;;;;8.82;1.50;;;;;;;12.67;100.00;102541.22;5022094;28;20059;-75
2023/10/08 04:45:58;;;;;;;10.18;2.00;;;;;;;12.67;100.00;102545.63;5049944;28;20053;-75
2023/10/08 04:48:32;;;;;;;6.80;1.33;;;;;;;12.67;100.00;102541.22;5050683;28;20048;-75
2023/10/08 04:51:02;;;;;;;10.13;1.50;;;;;;;12.66;100.00;102546.47;5053732;28;20044;-76
2023/10/08 04:53:40;;;;;;;7.13;1.83;;;;;;;12.64;100.00;102557.00;5062838;28;20041;-76
2023/10/08 04:56:17;;;;;;;6.93;1.67;;;;;;;12.63;100.00;102551.72;5048974;28;20441;-76
2023/10/08 04:58:47;;;;;;;9.48;1.65;;;;;;;12.63;100.00;102538.50;5061525;28;20048;-76
2023/10/08 05:01:18;;;;;;;6.00;1.73;;;;;;;12.63;100.00;102551.72;5013994;28;20401;-76
2023/10/08 05:06:50;;;;;;;8.10;1.67;;;;;;;12.63;100.00;102519.97;5043174;28;20037;-76
2023/10/08 05:14:34;;;;;;;7.70;1.42;;;;;;;12.64;100.00;102519.97;5016861;28;20413;-75
2023/10/08 05:17:11;;;;;;;7.50;1.50;;;;;;;12.65;100.00;102527.06;5060218;28;20516;-76
2023/10/08 05:22:43;;;;;;;5.75;1.10;;;;;;;12.62;100.00;102528.75;5057842;28;20049;-75
2023/10/08 05:33:06;;;;;;;3.70;1.27;;;;;;;12.52;100.00;102508.28;5045595;28;20043;-75
2023/10/08 05:46:39;;;;;;;7.47;1.40;;;;;;;12.40;100.00;102537.97;5020104;28;20044;-75
2023/10/08 06:13:15;;;;;;;4.15;1.33;;;;;;;12.35;100.00;102550.19;5050436;28;20047;-75
2023/10/08 06:18:28;;;;;;;8.50;1.48;;;;;;;12.38;100.00;102574.97;5020600;28;20039;-74
2023/10/08 06:21:01;;;;;;;4.50;1.33;;;;;;;12.39;100.00;102571.44;5053881;28;20048;-75
2023/10/08 06:23:31;;;;;;;3.00;1.35;;;;;;;12.39;100.00;102574.09;5063392;28;20075;-75
2023/10/08 06:28:41;;;;;;;2.90;1.20;;;;;;;12.41;100.00;102572.38;5062274;28;20044;-75
2023/10/08 06:31:12;;;;;;;5.55;1.25;;;;;;;12.42;100.00;102563.59;5029505;28;20044;-75
2023/10/08 06:33:40;;;;;;;10.25;1.80;;;;;;;12.44;100.00;102577.75;4994335;28;20059;-75
2023/10/08 06:38:44;;;;;;;3.47;1.38;;;;;;;12.50;100.00;102584.03;5060685;28;20091;-75
2023/10/08 06:44:02;;;;;;;5.78;1.30;;;;;;;12.60;100.00;102578.97;5053434;28;20059;-75
2023/10/08 06:46:34;;;;;;;5.30;1.10;;;;;;;12.66;100.00;102579.13;5053938;28;20541;-75
2023/10/08 06:49:11;;;;;;;6.47;1.10;;;;;;;12.73;100.00;102579.25;5029925;28;20106;-75
2023/10/08 06:51:43;;;;;;;5.03;1.50;;;;;;;12.78;100.00;102597.00;5045204;28;20052;-75
2023/10/08 06:54:16;;;;;;;4.90;2.10;;;;;;;12.81;100.00;102607.66;5062414;28;20071;-75
2023/10/08 06:56:51;;;;;;;7.63;1.40;;;;;;;12.86;100.00;102603.34;5065615;28;20048;-75
2023/10/08 06:59:23;;;;;;;3.80;1.45;;;;;;;12.95;100.00;102613.25;5064607;28;20048;-75
2023/10/08 07:01:51;;;;;;;7.32;1.40;;;;;;;13.01;100.00;102621.31;5054161;28;20048;-76
2023/10/08 07:04:21;;;;;;;7.47;1.30;;;;;;;13.08;100.00;102606.47;5019235;28;20079;-76
2023/10/08 07:06:54;;;;;;;3.00;1.13;;;;;;;13.15;100.00;102594.25;5074883;28;20043;-75
2023/10/08 07:11:56;;;;;;;9.25;2.05;;;;;;;13.17;100.00;102595.16;5060722;28;20045;-76
2023/10/08 07:14:27;;;;;;;4.97;1.80;;;;;;;13.21;100.00;102597.94;5062774;28;20041;-75
2023/10/08 07:17:01;;;;;;;5.43;1.52;;;;;;;13.26;100.00;102616.53;5018305;28;20040;-75
2023/10/08 07:19:37;;;;;;;5.05;1.27;;;;;;;13.33;100.00;102622.91;5024883;28;20604;-75
2023/10/08 07:22:17;;;;;;;6.32;1.70;;;;;;;13.39;100.00;102634.50;5045358;28;20371;-76
2023/10/08 07:24:50;;;;;;;8.57;1.75;;;;;;;13.46;100.00;102624.94;5055807;28;20049;-75
2023/10/08 07:27:21;;;;;;;4.65;1.23;;;;;;;13.48;100.00;102628.50;5051931;28;20401;-76
2023/10/08 07:29:49;;;;;;;8.57;1.30;;;;;;;13.49;100.00;102627.63;5062488;28;20045;-75
2023/10/08 07:32:18;;;;;;;8.02;1.42;;;;;;;13.52;100.00;102624.16;5024622;28;20040;-75
2023/10/08 07:34:46;;;;;;;4.97;2.13;;;;;;;13.54;100.00;102663.03;5060056;28;20056;-75
2023/10/08 07:37:15;;;;;;;9.70;1.63;;;;;;;13.57;100.00;102670.13;5002924;28;20037;-75
2023/10/08 07:39:49;;;;;;;9.48;1.92;;;;;;;13.59;100.00;102674.63;5050790;28;20060;-75
2023/10/08 07:42:16;;;;;;;10.65;1.75;;;;;;;13.62;100.00;102668.47;5028888;28;20064;-74
2023/10/08 07:44:44;;;;;;;5.53;2.03;;;;;;;13.65;100.00;102658.84;5039214;28;20049;-75
2023/10/08 07:47:12;;;;;;;6.15;1.20;;;;;;;13.69;100.00;102667.75;5039360;28;20040;-74
2023/10/08 07:49:39;;;;;;;6.97;1.55;;;;;;;13.73;100.00;102677.53;5033598;28;20060;-75
2023/10/08 07:52:07;;;;;;;5.68;1.50;;;;;;;13.77;100.00;102689.09;5012499;28;20163;-75
2023/10/08 07:54:34;;;;;;;6.03;1.33;;;;;;;13.80;100.00;102698.00;5036946;28;20402;-75
2023/10/08 07:57:08;;;;;;;3.38;1.10;;;;;;;13.85;100.00;102674.22;5045832;28;20055;-75
2023/10/08 07:59:38;;;;;;;7.60;1.58;;;;;;;13.91;100.00;102676.97;5063530;28;20044;-75
2023/10/08 08:02:12;;;;;;;8.82;1.95;;;;;;;13.97;100.00;102671.81;5053130;28;20048;-76
2023/10/08 08:04:40;;;;;;;3.28;1.25;;;;;;;14.06;100.00;102660.47;5046982;28;20041;-75
2023/10/08 08:07:08;;;;;;;9.57;1.80;;;;;;;14.13;100.00;102662.34;5018486;28;20049;-76
2023/10/08 08:09:37;;;;;;;6.20;1.30;;;;;;;14.09;100.00;102636.66;5049308;28;20060;-75
2023/10/08 08:12:11;;;;;;;4.15;1.73;;;;;;;14.10;100.00;102624.28;5044812;28;20468;-76
2023/10/08 08:14:41;;;;;;;8.25;1.60;;;;;;;14.11;100.00;102632.28;5033367;28;20055;-76
2023/10/08 08:17:15;;;;;;;2.17;1.17;;;;;;;14.12;100.00;102610.22;5044786;28;20512;-76
2023/10/08 08:19:47;;;;;;;2.80;0.90;;;;;;;14.14;100.00;102623.47;5048289;28;20052;-76
2023/10/08 08:22:21;;;;;;;4.20;1.38;;;;;;;14.18;100.00;102628.88;5022945;28;20055;-75
2023/10/08 08:25:04;;;;;;;4.28;1.27;;;;;;;14.22;100.00;102646.59;5029375;28;20409;-75
2023/10/08 08:27:32;;;;;;;7.32;0.98;;;;;;;14.28;100.00;102669.69;5045383;28;20040;-75
2023/10/08 08:30:15;;;;;;;10.38;1.15;;;;;;;14.32;100.00;102644.13;5046686;28;20596;-75
2023/10/08 08:32:48;;;;;;;6.53;1.75;;;;;;;14.31;100.00;102675.06;5042892;28;20481;-75
2023/10/08 08:35:20;;;;;;;6.75;1.88;;;;;;;14.35;100.00;102700.75;5045132;28;20055;-77
2023/10/08 08:37:49;;;;;;;5.55;1.15;;;;;;;14.38;100.00;102652.16;5014169;28;20053;-74
2023/10/08 08:40:24;;;;;;;6.88;1.58;;;;;;;14.39;100.00;102750.31;5069025;28;20059;-75
2023/10/08 08:42:52;;;;;;;33.08;2.53;;;;;;;14.42;100.00;102779.56;5034107;28;20048;-74
2023/10/08 08:45:26;;;;;;;5.68;1.25;;;;;;;14.46;100.00;102793.78;5042499;28;20053;-75
2023/10/08 08:47:55;;;;;;;6.97;2.00;;;;;;;14.46;100.00;102726.56;5037306;28;20049;-76
2023/10/08 08:50:23;;;;;;;4.18;1.15;;;;;;;14.42;100.00;102689.38;5031076;28;20044;-76
2023/10/08 08:52:51;;;;;;;5.82;1.48;;;;;;;14.43;100.00;102707.06;5063341;28;20048;-75
2023/10/08 08:55:20;;;;;;;3.03;1.20;;;;;;;14.48;100.00;102730.13;5020327;28;20049;-76
2023/10/08 08:57:50;;;;;;;6.25;1.25;;;;;;;14.51;100.00;102736.38;5046100;28;20051;-75
2023/10/08 09:00:20;;;;;;;11.85;1.80;;;;;;;14.56;100.00;102742.66;5050242;28;20612;-76
2023/10/08 09:02:49;;;;;;;7.55;1.42;;;;;;;14.59;100.00;102733.88;5049605;28;20052;-75
2023/10/08 09:05:25;;;;;;;4.47;1.10;;;;;;;14.64;100.00;102750.78;5004372;28;20409;-76
2023/10/08 09:08:06;;;;;;;2.42;1.02;;;;;;;14.69;100.00;102746.44;5047534;28;20049;-75
2023/10/08 09:10:50;;;;;;;6.47;1.27;;;;;;;14.70;100.00;102756.19;5009916;28;20064;-76
2023/10/08 09:13:22;;;;;;;4.68;1.17;;;;;;;14.68;100.00;102747.31;5066815;28;20060;-76
2023/10/08 09:15:51;;;;;;;5.50;1.38;;;;;;;14.67;100.00;102737.56;5028376;28;20049;-76
2023/10/08 09:18:27;;;;;;;3.97;1.00;;;;;;;14.69;100.00;102725.22;5061226;28;20052;-75
2023/10/08 09:20:55;;;;;;;8.55;1.23;;;;;;;14.71;100.00;102731.44;5013194;28;20045;-76
2023/10/08 09:23:24;;;;;;;2.92;1.23;;;;;;;14.69;100.00;102730.53;5038926;28;21866;-75
2023/10/08 09:26:02;;;;;;;5.25;1.25;;;;;;;14.68;100.00;102742.00;5001055;28;20500;-76
2023/10/08 09:28:34;;;;;;;8.48;1.90;;;;;;;14.67;100.00;102742.88;5055873;28;20036;-76
2023/10/08 09:31:04;;;;;;;4.43;1.48;;;;;;;14.67;100.00;102724.31;5008653;28;20060;-75
2023/10/08 09:33:32;;;;;;;;;;;;;;;14.67;100.00;102720.75;5055988;28;20056;-76
2023/10/08 09:36:05;;;;;;;4.70;1.10;;;;;;;14.68;100.00;102747.31;5058484;28;19929;-75
2023/10/08 09:38:33;;;;;;;5.88;0.93;;;;;;;14.69;100.00;102749.09;5052829;28;20052;-78
2023/10/08 09:41:02;;;;;;;3.28;0.88;;;;;;;14.74;100.00;102744.75;5014471;28;20058;-76
2023/10/08 09:43:32;;;;;;;2.42;1.00;;;;;;;14.78;100.00;102737.72;5056428;28;20052;-75
2023/10/08 09:46:28;;;;;;;4.00;1.20;;;;;;;14.88;100.00;102722.88;5034299;28;20056;-76
2023/10/08 09:49:01;;;;;;;4.10;1.52;;;;;;;14.95;100.00;102714.09;5042395;28;20060;-75
2023/10/08 09:51:31;;;;;;;3.45;1.48;;;;;;;14.90;100.00;102714.03;5055228;28;20049;-74
2023/10/08 09:54:24;;;;;;;5.70;1.40;;;;;;;14.91;100.00;102720.25;5037134;28;20044;-75
2023/10/08 09:56:54;;;;;;;3.63;1.63;;;;;;;14.95;100.00;102725.63;5013961;28;22375;-75
2023/10/08 09:59:22;;;;;;;2.40;0.90;;;;;;;15.01;100.00;102735.44;5040279;28;20049;-75
2023/10/08 10:01:50;;;;;;;5.03;2.05;;;;;;;15.06;100.00;102740.81;5035593;28;20097;-75
2023/10/08 10:04:24;;;;;;;3.08;1.00;;;;;;;15.08;100.00;102723.13;5060541;28;20059;-75
2023/10/08 10:06:52;;;;;;;7.95;1.38;;;;;;;15.12;100.00;102728.53;5060033;28;20056;-75
2023/10/08 10:09:24;;;;;;;2.80;1.30;;;;;;;15.18;100.00;102733.91;4994875;28;20733;-75
2023/10/08 10:11:53;;;;;;;3.70;1.20;;;;;;;15.26;100.00;102746.44;5061829;28;20423;-75
2023/10/08 10:14:27;;;;;;;6.05;1.23;;;;;;;15.28;100.00;102740.25;5018010;28;20493;-75
2023/10/08 10:17:22;;;;;;;8.13;1.50;;;;;;;15.32;100.00;102749.16;5013628;28;20049;-75
2023/10/08 10:20:13;;;;;;;5.45;1.48;;;;;;;15.33;100.00;102758.91;5067898;28;20389;-75
2023/10/08 10:22:43;;;;;;;6.10;1.90;;;;;;;15.35;100.00;102758.06;5047741;28;21294;-75
2023/10/08 10:25:19;;;;;;;2.85;0.95;;;;;;;15.37;100.00;102755.44;5036274;28;20041;-75
2023/10/08 10:27:55;;;;;;;7.78;1.27;;;;;;;15.39;100.00;102751.91;5063137;28;21191;-75
2023/10/08 10:30:23;;;;;;;5.20;1.00;;;;;;;15.43;100.00;102755.50;5008821;28;20051;-74
2023/10/08 10:32:51;;;;;;;6.03;1.30;;;;;;;15.49;100.00;102757.34;5040483;28;20047;-75
2023/10/08 10:35:19;;;;;;;5.38;1.05;;;;;;;15.54;100.00;102761.84;5058083;28;20059;-75
2023/10/08 10:37:54;;;;;;;2.80;0.90;;;;;;;15.62;100.00;102753.09;5060903;28;20064;-75
2023/10/08 10:40:41;;;;;;;3.58;1.20;;;;;;;15.71;100.00;102745.25;5038471;28;20048;-75
2023/10/08 10:43:15;;;;;;;3.75;1.00;;;;;;;15.78;100.00;102737.41;5062877;28;20485;-75
2023/10/08 10:45:44;;;;;;;6.80;1.33;;;;;;;15.80;100.00;102748.00;5024923;28;20048;-75
2023/10/08 10:53:57;;;;;;;5.10;0.90;;;;;;;15.76;100.00;102744.47;5059793;28;20071;-74
2023/10/08 10:56:30;;;;;;;2.95;1.45;;;;;;;15.73;100.00;102730.22;5043651;28;20036;-74
2023/10/08 10:59:15;;;;;;;6.28;1.20;;;;;;;15.72;100.00;102717.78;5067158;28;20057;-75
2023/10/08 11:01:52;;;;;;;2.28;1.10;;;;;;;15.73;100.00;102708.94;5030509;28;20041;-75
2023/10/08 11:04:28;;;;;;;6.95;1.98;;;;;;;15.75;100.00;102685.97;5055820;28;20517;-74
2023/10/08 11:06:58;;;;;;;6.68;1.35;;;;;;;15.83;100.00;102680.72;5056301;28;20044;-75
2023/10/08 11:09:37;;;;;;;4.30;1.10;;;;;;;15.86;100.00;102660.38;5046653;28;20478;-76
2023/10/08 11:12:13;;;;;;;4.32;1.13;;;;;;;15.88;100.00;102649.75;5034848;28;20047;-75
2023/10/08 11:14:41;;;;;;;3.80;1.02;;;;;;;15.92;100.00;102623.22;5059059;28;20044;-75
2023/10/08 11:17:11;;;;;;;5.03;1.10;;;;;;;15.94;100.00;102610.81;4974102;28;20053;-75
2023/10/08 11:19:38;;;;;;;4.88;1.17;;;;;;;16.00;100.00;102625.06;5054105;28;20045;-75
2023/10/08 11:22:06;;;;;;;3.78;1.20;;;;;;;16.08;100.00;102648.16;5036487;28;20056;-75
2023/10/08 11:24:33;;;;;;;2.60;1.15;;;;;;;16.12;100.00;102657.97;5043622;28;20052;-76
2023/10/08 11:27:17;;;;;;;7.72;2.08;;;;;;;16.15;100.00;102670.41;5026889;28;20041;-75
2023/10/08 11:29:47;;;;;;;3.03;1.20;;;;;;;16.17;100.00;102671.31;5052521;28;20028;-78
2023/10/08 11:32:17;;;;;;;4.35;1.00;;;;;;;16.19;100.00;102680.19;5029629;28;20044;-79
2023/10/08 11:34:51;;;;;;;4.55;0.90;;;;;;;16.25;100.00;102680.22;5058539;28;20048;-81
2023/10/08 11:37:29;;;;;;;6.25;1.55;;;;;;;16.28;100.00;102685.59;5039200;28;20051;-78
2023/10/08 11:39:59;;;;;;;10.73;1.75;;;;;;;16.33;100.00;102680.28;5046238;28;20041;-78
2023/10/08 11:45:17;;;;;;;6.40;0.93;;;;;;;16.32;100.00;102679.41;5065807;28;20386;-77
2023/10/08 11:47:45;;;;;;;4.32;1.10;;;;;;;16.31;100.00;102680.31;5049073;28;20048;-77
2023/10/08 11:50:17;;;;;;;3.17;0.98;;;;;;;16.31;100.00;102687.38;5048392;28;20059;-77
2023/10/08 11:52:49;;;;;;;3.35;1.15;;;;;;;16.23;100.00;102687.31;5045522;28;20406;-78
2023/10/08 11:55:19;;;;;;;3.78;1.30;;;;;;;16.20;100.00;102670.44;5065978;28;20678;-76
2023/10/08 11:57:49;;;;;;;2.00;0.87;;;;;;;16.15;100.00;102662.44;5038038;28;20048;-78
2023/10/08 12:00:28;;;;;;;4.90;1.17;;;;;;;16.14;100.00;102652.66;5046134;28;20307;-76
2023/10/08 12:03:01;;;;;;;;;;;;;;;16.15;99.76;102665.09;5017397;28;20405;-76
2023/10/08 12:05:29;;;;;;;5.32;0.90;;;;;;;16.18;100.00;102670.41;5072941;28;19928;-75
2023/10/08 12:07:58;;;;;;;3.60;0.93;;;;;;;16.16;100.00;102670.41;5057667;28;20045;-75
2023/10/08 12:10:25;;;;;;;4.55;1.10;;;;;;;16.15;100.00;102665.09;5044774;28;20052;-75
2023/10/08 12:12:54;;;;;;;5.85;1.40;;;;;;;16.10;100.00;102667.69;5045429;28;20044;-75
2023/10/08 12:15:22;;;;;;;3.42;1.00;;;;;;;16.11;100.00;102665.94;5067084;28;20055;-75
2023/10/08 12:18:08;;;;;;;5.50;1.42;;;;;;;16.10;100.00;102664.13;5025576;28;20415;-75
2023/10/08 12:20:38;;;;;;;5.93;1.38;;;;;;;16.13;100.00;102669.50;5061359;28;20067;-77
2023/10/08 12:23:05;;;;;;;7.03;1.38;;;;;;;16.16;100.00;102666.84;5045357;28;20052;-78
2023/10/08 12:25:33;;;;;;;4.70;0.98;;;;;;;16.19;100.00;102661.56;5048456;28;20047;-77
2023/10/08 12:28:04;;;;;;;4.75;0.90;;;;;;;16.21;100.00;102673.09;5015410;28;20607;-79
2023/10/08 12:30:37;;;;;;;5.70;1.00;;;;;;;16.22;100.00;102674.91;5034092;28;20033;-78
2023/10/08 12:33:06;;;;;;;5.25;1.85;;;;;;;16.25;100.00;102671.38;5012523;28;20061;-78
2023/10/08 12:35:34;;;;;;;4.18;1.08;;;;;;;16.25;100.00;102669.59;5049284;28;20056;-77
2023/10/08 12:38:02;;;;;;;2.67;1.00;;;;;;;16.29;99.99;102666.06;5041548;28;20048;-77
2023/10/08 12:40:41;;;;;;;4.45;1.55;;;;;;;16.32;99.41;102666.13;5051221;28;20056;-75
2023/10/08 12:43:09;;;;;;;2.83;1.10;;;;;;;16.40;100.00;102674.16;5050398;28;21336;-76
2023/10/08 12:45:37;;;;;;;5.15;1.00;;;;;;;16.51;100.00;102684.88;5068872;28;20064;-75
2023/10/08 12:48:05;;;;;;;6.32;1.08;;;;;;;16.59;99.65;102682.28;5061110;28;20044;-77
2023/10/08 12:50:42;;;;;;;6.05;1.25;;;;;;;16.61;99.36;102678.75;5005275;28;20510;-77
2023/10/08 12:53:11;;;;;;;3.97;1.27;;;;;;;16.64;99.44;102676.13;5063535;28;20048;-77
2023/10/08 12:58:48;;;;;;;3.72;1.35;;;;;;;16.63;98.75;102670.78;5388035;23;20048;-79
2023/10/08 13:01:19;;;;;;;4.57;1.48;;;;;;;16.59;99.12;102669.88;4879239;29;20051;-79
2023/10/08 13:03:49;;;;;;;3.33;1.15;;;;;;;16.59;98.80;102667.19;4906633;29;20048;-79
2023/10/08 13:06:22;;;;;;;2.22;1.13;;;;;;;16.55;98.59;102663.63;4891219;29;20054;-79
2023/10/08 13:08:52;;;;;;;6.30;1.20;;;;;;;16.46;97.71;102657.34;4920731;29;20098;-80
2023/10/08 13:11:25;;;;;;;2.88;1.10;;;;;;;16.37;97.94;102652.88;4914715;29;20059;-80
2023/10/08 13:13:56;;;;;;;3.78;1.33;;;;;;;16.29;97.89;102660.75;4925171;29;20043;-80
2023/10/08 13:16:25;;;;;;;6.22;1.55;;;;;;;16.21;98.32;102656.28;4898252;29;20056;-80
2023/10/08 13:18:56;;;;;;;1.90;0.80;;;;;;;16.14;97.17;102642.00;4908932;29;20055;-81
2023/10/08 13:21:28;;;;;;;6.68;1.52;;;;;;;16.12;98.27;102641.09;4869487;29;20527;-79